Time;durP1;ratioP1;P1;durP2;ratioP2;P2;SDS_P1;SDS_P2;PMS_P1;PMS_P2;Temp;Humidity;BMP_temperature;BMP_pressure;BME280_temperature;BME280_humidity;BME280_pressure;Samples;Min_cycle;Max_cycle;Signal;HPM_P1;HPM_P2
2022/04/02 00:00:21;;;;;;;;;2.00;1.00;;;;;;;;5038607;28;45933;-68
2022/04/02 00:02:47;;;;;;;;;3.25;2.00;;;;;;;;5034671;28;45410;-68
2022/04/02 00:05:12;;;;;;;;;2.00;2.00;;;;;;;;5035793;28;45564;-68
2022/04/02 00:07:38;;;;;;;;;2.25;2.00;;;;;;;;5035798;28;45490;-68
2022/04/02 00:10:05;;;;;;;;;2.00;2.00;;;;;;;;5034972;28;45451;-68
2022/04/02 00:12:31;;;;;;;;;2.00;2.00;;;;;;;;5034627;28;45559;-68
2022/04/02 00:14:56;;;;;;;;;1.00;1.00;;;;;;;;5033609;28;46611;-68
2022/04/02 00:17:22;;;;;;;;;1.00;0.50;;;;;;;;5034815;28;45422;-69
2022/04/02 00:19:47;;;;;;;;;3.50;3.25;;;;;;;;5033254;28;45498;-68
2022/04/02 00:22:13;;;;;;;;;2.00;1.25;;;;;;;;5036568;28;45580;-68
2022/04/02 00:24:38;;;;;;;;;1.00;1.00;;;;;;;;5037558;28;45426;-69
2022/04/02 00:27:03;;;;;;;;;1.75;1.25;;;;;;;;5035466;28;45469;-69
2022/04/02 00:29:29;;;;;;;;;2.00;1.75;;;;;;;;5034438;28;45513;-67
2022/04/02 00:31:54;;;;;;;;;2.00;2.00;;;;;;;;5035717;28;45449;-68
2022/04/02 00:34:20;;;;;;;;;2.00;1.25;;;;;;;;5035172;28;46633;-68
2022/04/02 00:36:45;;;;;;;;;5.00;3.25;;;;;;;;5035048;28;45383;-68
2022/04/02 00:39:10;;;;;;;;;3.00;2.00;;;;;;;;5037363;28;46262;-68
2022/04/02 00:41:36;;;;;;;;;3.25;2.75;;;;;;;;5034240;28;45495;-68
2022/04/02 00:44:17;;;;;;;;;5.75;3.25;;;;;;;;5034588;28;45886;-69
2022/04/02 00:46:43;;;;;;;;;4.75;2.75;;;;;;;;5037526;28;45406;-68
2022/04/02 00:49:09;;;;;;;;;6.75;5.25;;;;;;;;5035358;28;45540;-69
2022/04/02 00:51:36;;;;;;;;;6.00;3.50;;;;;;;;5034422;28;45440;-68
2022/04/02 00:54:02;;;;;;;;;5.00;3.25;;;;;;;;5034142;28;46400;-68
2022/04/02 00:56:27;;;;;;;;;3.25;2.25;;;;;;;;5034744;28;45382;-68
2022/04/02 00:58:53;;;;;;;;;3.25;2.75;;;;;;;;5035383;28;45498;-68
2022/04/02 01:01:18;;;;;;;;;3.25;2.25;;;;;;;;5034189;28;45417;-68
2022/04/02 01:03:43;;;;;;;;;3.00;2.00;;;;;;;;5037976;28;45484;-68
2022/04/02 01:06:10;;;;;;;;;3.25;2.00;;;;;;;;5038402;28;45466;-68
2022/04/02 01:08:36;;;;;;;;;4.00;3.00;;;;;;;;5038659;28;45635;-68
2022/04/02 01:11:01;;;;;;;;;1.50;1.50;;;;;;;;5037928;28;45520;-68
2022/04/02 01:13:27;;;;;;;;;2.50;2.00;;;;;;;;5037086;28;45979;-68
2022/04/02 01:15:53;;;;;;;;;2.25;2.00;;;;;;;;5038427;28;45552;-68
2022/04/02 01:18:18;;;;;;;;;1.75;1.00;;;;;;;;5036397;28;45389;-68
2022/04/02 01:20:44;;;;;;;;;2.25;2.00;;;;;;;;5041010;28;45423;-68
2022/04/02 01:23:10;;;;;;;;;3.00;2.00;;;;;;;;5037679;28;45461;-68
2022/04/02 01:25:36;;;;;;;;;2.25;2.00;;;;;;;;5036120;28;45846;-71
2022/04/02 01:28:01;;;;;;;;;2.75;2.00;;;;;;;;5037518;28;45583;-68
2022/04/02 01:30:28;;;;;;;;;1.00;1.00;;;;;;;;5041960;28;45505;-68
2022/04/02 01:32:53;;;;;;;;;1.25;1.25;;;;;;;;5037771;28;45454;-68
2022/04/02 01:35:22;;;;;;;;;2.00;2.00;;;;;;;;5037048;28;45490;-68
2022/04/02 01:37:48;;;;;;;;;25.75;22.00;;;;;;;;5037050;28;45422;-68
2022/04/02 01:40:14;;;;;;;;;26.00;21.75;;;;;;;;5038154;28;45454;-68
2022/04/02 01:42:39;;;;;;;;;21.00;18.00;;;;;;;;5037399;28;45485;-68
2022/04/02 01:45:05;;;;;;;;;6.75;6.00;;;;;;;;5037795;28;45420;-70
2022/04/02 01:47:30;;;;;;;;;17.25;15.75;;;;;;;;5036854;28;45499;-68
2022/04/02 01:49:55;;;;;;;;;8.00;8.00;;;;;;;;5037884;28;45522;-68
2022/04/02 01:52:21;;;;;;;;;5.00;3.25;;;;;;;;5037943;28;45507;-68
2022/04/02 01:54:47;;;;;;;;;3.25;2.50;;;;;;;;5040271;28;45534;-68
2022/04/02 01:57:13;;;;;;;;;2.00;2.00;;;;;;;;5038254;28;45453;-68
2022/04/02 01:59:44;;;;;;;;;1.75;1.00;;;;;;;;5036702;28;45401;-67
2022/04/02 02:02:09;;;;;;;;;5.25;5.00;;;;;;;;5038383;28;46194;-68
2022/04/02 02:04:35;;;;;;;;;4.75;4.75;;;;;;;;5040020;28;45576;-68
2022/04/02 02:07:01;;;;;;;;;5.00;3.25;;;;;;;;5036887;28;45888;-68
2022/04/02 02:09:26;;;;;;;;;3.00;2.00;;;;;;;;5037445;28;45404;-68
2022/04/02 02:11:51;;;;;;;;;2.25;2.00;;;;;;;;5036290;28;45523;-67
2022/04/02 02:14:17;;;;;;;;;1.00;1.00;;;;;;;;5035302;28;45852;-68
2022/04/02 02:16:42;;;;;;;;;1.75;1.00;;;;;;;;5038013;28;45446;-69
2022/04/02 02:19:08;;;;;;;;;3.25;2.75;;;;;;;;5037488;28;45465;-68
2022/04/02 02:21:33;;;;;;;;;3.00;2.00;;;;;;;;5036230;28;45578;-68
2022/04/02 02:23:58;;;;;;;;;2.00;2.00;;;;;;;;5037317;28;45452;-68
2022/04/02 02:26:24;;;;;;;;;1.50;1.25;;;;;;;;5037276;28;45431;-68
2022/04/02 02:28:49;;;;;;;;;1.00;1.00;;;;;;;;5038112;28;45426;-68
2022/04/02 02:31:15;;;;;;;;;1.75;1.75;;;;;;;;5036216;28;46111;-68
2022/04/02 02:36:25;;;;;;;;;1.50;1.00;;;;;;;;5040134;28;45454;-68
2022/04/02 02:38:51;;;;;;;;;2.00;1.25;;;;;;;;5050594;28;45719;-68
2022/04/02 02:41:16;;;;;;;;;2.00;1.00;;;;;;;;5039446;28;46000;-69
2022/04/02 02:43:42;;;;;;;;;1.00;1.00;;;;;;;;5041057;28;45429;-68
2022/04/02 02:46:07;;;;;;;;;2.50;2.00;;;;;;;;5041027;28;45497;-68
2022/04/02 02:48:32;;;;;;;;;2.00;2.00;;;;;;;;5050815;28;45775;-68
2022/04/02 02:50:58;;;;;;;;;2.00;2.00;;;;;;;;5038812;28;45788;-68
2022/04/02 02:53:23;;;;;;;;;1.25;1.25;;;;;;;;5039897;28;45215;-68
2022/04/02 02:55:50;;;;;;;;;3.25;3.25;;;;;;;;5041886;28;45585;-68
2022/04/02 02:58:15;;;;;;;;;2.00;1.25;;;;;;;;5040520;28;45468;-68
2022/04/02 03:00:41;;;;;;;;;2.00;2.00;;;;;;;;5037574;28;45721;-68
2022/04/02 03:03:07;;;;;;;;;1.25;0.50;;;;;;;;5041807;28;45529;-68
2022/04/02 03:05:32;;;;;;;;;2.00;2.00;;;;;;;;5039655;28;45541;-68
2022/04/02 03:07:58;;;;;;;;;1.00;1.00;;;;;;;;5039983;28;45695;-68
2022/04/02 03:10:25;;;;;;;;;2.00;1.25;;;;;;;;5038402;28;46377;-68
2022/04/02 03:12:51;;;;;;;;;1.00;1.00;;;;;;;;5040325;28;45401;-68
2022/04/02 03:15:16;;;;;;;;;1.00;1.00;;;;;;;;5040723;28;46110;-68
2022/04/02 03:17:43;;;;;;;;;0.75;0.75;;;;;;;;5038811;28;45462;-68
2022/04/02 03:20:11;;;;;;;;;1.00;1.00;;;;;;;;5039542;28;46729;-68
2022/04/02 03:22:39;;;;;;;;;1.75;1.75;;;;;;;;5041933;28;45872;-68
2022/04/02 03:25:11;;;;;;;;;0.50;0.50;;;;;;;;5047259;28;45524;-68
2022/04/02 03:27:37;;;;;;;;;2.00;1.75;;;;;;;;5037930;28;45924;-68
2022/04/02 03:30:04;;;;;;;;;1.25;1.00;;;;;;;;5039173;28;45513;-68
2022/04/02 03:32:29;;;;;;;;;2.00;2.00;;;;;;;;5041701;28;45461;-68
2022/04/02 03:34:55;;;;;;;;;1.00;1.00;;;;;;;;5038972;28;45522;-68
2022/04/02 03:37:20;;;;;;;;;7.25;7.25;;;;;;;;5041102;28;45421;-68
2022/04/02 03:39:45;;;;;;;;;4.75;2.00;;;;;;;;5037825;28;46608;-68
2022/04/02 03:42:11;;;;;;;;;4.00;2.75;;;;;;;;5038043;28;45375;-68
2022/04/02 03:44:36;;;;;;;;;3.75;2.00;;;;;;;;5040103;28;45618;-68
2022/04/02 03:47:08;;;;;;;;;1.25;1.00;;;;;;;;5038745;28;45256;-68
2022/04/02 03:49:33;;;;;;;;;4.00;4.00;;;;;;;;5038734;28;46203;-68
2022/04/02 03:51:59;;;;;;;;;4.25;3.25;;;;;;;;5036608;28;45452;-68
2022/04/02 03:54:24;;;;;;;;;2.50;2.00;;;;;;;;5037020;28;45244;-69
2022/04/02 03:56:49;;;;;;;;;4.50;4.00;;;;;;;;5053824;28;45366;-68
2022/04/02 03:59:15;;;;;;;;;2.00;1.25;;;;;;;;5057035;28;46101;-67
2022/04/02 04:01:40;;;;;;;;;2.00;2.00;;;;;;;;5056736;28;45415;-68
2022/04/02 04:04:06;;;;;;;;;3.25;2.50;;;;;;;;5054759;28;45220;-68
2022/04/02 04:06:34;;;;;;;;;4.25;3.25;;;;;;;;5037159;28;45396;-70
2022/04/02 04:09:00;;;;;;;;;1.25;1.25;;;;;;;;5046784;28;45699;-68
2022/04/02 04:11:26;;;;;;;;;3.00;1.00;;;;;;;;5056669;28;45441;-67
2022/04/02 04:13:51;;;;;;;;;1.00;1.00;;;;;;;;5056756;28;45450;-67
2022/04/02 04:16:17;;;;;;;;;2.00;1.50;;;;;;;;5056978;28;45298;-67
2022/04/02 04:18:42;;;;;;;;;1.25;0.50;;;;;;;;5056329;28;46184;-67
2022/04/02 04:21:08;;;;;;;;;5.25;4.00;;;;;;;;5056596;28;45286;-69
2022/04/02 04:23:34;;;;;;;;;6.00;6.00;;;;;;;;5055515;28;45418;-67
2022/04/02 04:26:00;;;;;;;;;12.25;11.25;;;;;;;;5056900;28;45602;-67
2022/04/02 04:28:25;;;;;;;;;13.50;9.50;;;;;;;;5054770;28;46931;-67
2022/04/02 04:30:51;;;;;;;;;1.00;1.00;;;;;;;;5056139;28;45476;-67
2022/04/02 04:33:16;;;;;;;;;2.00;1.25;;;;;;;;5054838;28;45451;-67
2022/04/02 04:35:41;;;;;;;;;3.75;1.75;;;;;;;;5055674;28;45460;-67
2022/04/02 04:38:07;;;;;;;;;5.00;4.00;;;;;;;;5058339;28;46348;-67
2022/04/02 04:40:32;;;;;;;;;1.75;1.75;;;;;;;;5058450;28;45429;-68
2022/04/02 04:42:58;;;;;;;;;4.50;3.50;;;;;;;;5058662;28;46040;-67
2022/04/02 04:45:23;;;;;;;;;2.00;1.75;;;;;;;;5057939;28;45370;-69
2022/04/02 04:47:49;;;;;;;;;3.50;2.00;;;;;;;;5057909;28;46592;-67
2022/04/02 04:50:14;;;;;;;;;1.75;1.75;;;;;;;;5039364;28;45343;-68
2022/04/02 04:52:39;;;;;;;;;2.50;2.00;;;;;;;;5038449;28;45791;-68
2022/04/02 04:55:05;;;;;;;;;72.00;57.75;;;;;;;;5038512;28;45411;-68
2022/04/02 04:57:31;;;;;;;;;26.25;23.25;;;;;;;;5039620;28;45508;-67
2022/04/02 04:59:56;;;;;;;;;2.50;2.00;;;;;;;;5042039;28;45522;-67
2022/04/02 05:02:22;;;;;;;;;21.75;20.50;;;;;;;;5042252;28;45639;-67
2022/04/02 05:04:48;;;;;;;;;14.25;12.75;;;;;;;;5052247;28;45521;-68
2022/04/02 05:07:14;;;;;;;;;7.00;6.00;;;;;;;;5048349;28;45434;-68
2022/04/02 05:09:41;;;;;;;;;8.00;6.50;;;;;;;;5051647;28;45480;-68
2022/04/02 05:12:07;;;;;;;;;1.50;1.00;;;;;;;;5037119;28;45414;-68
2022/04/02 05:14:34;;;;;;;;;2.50;2.50;;;;;;;;5044125;28;45584;-67
2022/04/02 05:16:59;;;;;;;;;1.00;1.00;;;;;;;;5048539;28;45493;-67
2022/04/02 05:19:25;;;;;;;;;3.50;1.50;;;;;;;;5037262;28;45417;-69
2022/04/02 05:21:50;;;;;;;;;3.00;2.00;;;;;;;;5039777;28;45461;-67
2022/04/02 05:24:16;;;;;;;;;4.00;2.00;;;;;;;;5053578;28;45575;-67
2022/04/02 05:26:41;;;;;;;;;2.00;2.00;;;;;;;;5037937;28;46235;-67
2022/04/02 05:29:08;;;;;;;;;1.00;1.00;;;;;;;;5038871;28;45196;-68
2022/04/02 05:31:33;;;;;;;;;4.00;2.50;;;;;;;;5038892;28;45410;-67
2022/04/02 05:33:58;;;;;;;;;2.00;1.00;;;;;;;;5039249;28;45346;-67
2022/04/02 05:36:24;;;;;;;;;116.50;101.75;;;;;;;;5038990;28;46323;-69
2022/04/02 05:38:49;;;;;;;;;12.75;12.00;;;;;;;;5053715;28;45534;-67
2022/04/02 05:41:15;;;;;;;;;5.00;5.00;;;;;;;;5044326;28;45355;-68
2022/04/02 05:43:40;;;;;;;;;3.50;2.00;;;;;;;;5047082;28;45378;-68
2022/04/02 05:46:06;;;;;;;;;10.00;8.25;;;;;;;;5052228;28;46119;-67
2022/04/02 05:48:31;;;;;;;;;166.25;144.75;;;;;;;;5041103;28;45663;-69
2022/04/02 05:50:56;;;;;;;;;16.25;15.50;;;;;;;;5051937;28;45259;-67
2022/04/02 05:53:23;;;;;;;;;5.25;5.25;;;;;;;;5054520;28;45494;-67
2022/04/02 05:55:48;;;;;;;;;16.75;16.00;;;;;;;;5045100;28;45656;-68
2022/04/02 05:58:13;;;;;;;;;13.75;11.75;;;;;;;;5045046;28;45414;-68
2022/04/02 06:00:39;;;;;;;;;31.75;29.25;;;;;;;;5040877;28;45449;-67
2022/04/02 06:03:05;;;;;;;;;9.00;8.25;;;;;;;;5048993;28;45485;-68
2022/04/02 06:05:30;;;;;;;;;14.75;13.50;;;;;;;;5054953;28;45456;-67
2022/04/02 06:07:56;;;;;;;;;18.00;16.25;;;;;;;;5055668;28;45522;-68
2022/04/02 06:10:21;;;;;;;;;12.75;12.75;;;;;;;;5057738;28;45449;-68
2022/04/02 06:12:50;;;;;;;;;19.50;14.00;;;;;;;;5040894;28;45497;-68
2022/04/02 06:15:15;;;;;;;;;15.00;14.25;;;;;;;;5049582;28;45521;-68
2022/04/02 06:17:41;;;;;;;;;12.00;10.25;;;;;;;;5048794;28;45283;-67
2022/04/02 06:20:07;;;;;;;;;43.50;37.75;;;;;;;;5055471;28;45417;-71
2022/04/02 06:22:33;;;;;;;;;80.75;60.50;;;;;;;;5054870;28;45572;-68
2022/04/02 06:24:58;;;;;;;;;49.50;40.00;;;;;;;;5055068;28;46441;-68
2022/04/02 06:27:24;;;;;;;;;38.25;31.75;;;;;;;;5053329;28;45358;-67
2022/04/02 06:29:49;;;;;;;;;38.50;33.25;;;;;;;;5056021;28;45398;-67
2022/04/02 06:32:15;;;;;;;;;43.50;34.75;;;;;;;;5055182;28;45567;-68
2022/04/02 06:34:40;;;;;;;;;83.67;63.00;;;;;;;;5053785;28;45504;-68
2022/04/02 06:37:06;;;;;;;;;16.75;15.25;;;;;;;;5053751;28;45467;-68
2022/04/02 06:39:31;;;;;;;;;10.00;9.00;;;;;;;;5053757;28;45373;-68
2022/04/02 06:41:57;;;;;;;;;12.50;10.50;;;;;;;;5053231;28;45521;-68
2022/04/02 06:44:22;;;;;;;;;31.25;28.50;;;;;;;;5054374;28;45468;-67
2022/04/02 06:46:48;;;;;;;;;20.75;18.00;;;;;;;;5056050;28;45743;-67
2022/04/02 06:49:13;;;;;;;;;25.50;23.25;;;;;;;;5053956;28;46158;-68
2022/04/02 06:51:39;;;;;;;;;20.00;19.00;;;;;;;;5053465;28;45326;-67
2022/04/02 06:54:05;;;;;;;;;27.00;25.50;;;;;;;;5054830;28;46137;-68
2022/04/02 06:56:30;;;;;;;;;20.00;14.00;;;;;;;;5054797;28;45408;-68
2022/04/02 06:58:56;;;;;;;;;12.50;12.00;;;;;;;;5053857;28;46312;-67
2022/04/02 07:01:21;;;;;;;;;31.75;30.00;;;;;;;;5052370;28;45442;-70
2022/04/02 07:03:46;;;;;;;;;18.00;16.75;;;;;;;;5040584;28;47616;-68
2022/04/02 07:06:12;;;;;;;;;31.50;30.00;;;;;;;;5046358;28;45316;-69
2022/04/02 07:08:38;;;;;;;;;13.25;12.00;;;;;;;;5036804;28;45328;-67
2022/04/02 07:11:04;;;;;;;;;16.00;14.00;;;;;;;;5046242;28;45502;-68
2022/04/02 07:13:29;;;;;;;;;27.25;24.00;;;;;;;;5042711;28;46217;-68
2022/04/02 07:15:55;;;;;;;;;23.75;21.50;;;;;;;;5037149;28;45466;-69
2022/04/02 07:18:21;;;;;;;;;12.25;12.00;;;;;;;;5040181;28;46781;-70
2022/04/02 07:20:49;;;;;;;;;14.00;13.00;;;;;;;;5055856;28;45457;-70
2022/04/02 07:23:16;;;;;;;;;11.00;11.00;;;;;;;;5046524;28;46364;-71
2022/04/02 07:25:41;;;;;;;;;7.75;7.75;;;;;;;;5054801;28;45509;-70
2022/04/02 07:28:07;;;;;;;;;4.50;3.50;;;;;;;;5056385;28;45169;-71
2022/04/02 07:30:33;;;;;;;;;16.75;15.00;;;;;;;;5056192;28;45339;-70
2022/04/02 07:32:59;;;;;;;;;43.50;36.75;;;;;;;;5054649;28;46125;-71
2022/04/02 07:35:25;;;;;;;;;19.75;19.50;;;;;;;;5050838;28;45425;-70
2022/04/02 07:37:50;;;;;;;;;8.75;8.75;;;;;;;;5042161;28;45364;-71
2022/04/02 07:40:15;;;;;;;;;6.33;6.00;;;;;;;;5044775;28;45442;-69
2022/04/02 07:42:41;;;;;;;;;5.00;4.33;;;;;;;;5050293;28;45703;-71
2022/04/02 07:45:07;;;;;;;;;13.50;12.50;;;;;;;;5038398;28;45520;-71
2022/04/02 07:47:37;;;;;;;;;6.00;5.00;;;;;;;;5048735;28;45611;-71
2022/04/02 07:50:05;;;;;;;;;23.25;18.25;;;;;;;;5043985;28;45663;-71
2022/04/02 07:52:31;;;;;;;;;9.00;8.67;;;;;;;;5046067;28;45587;-70
2022/04/02 07:54:57;;;;;;;;;5.67;5.67;;;;;;;;5047568;28;45582;-71
2022/04/02 07:57:34;;;;;;;;;6.67;6.00;;;;;;;;5044008;28;45556;-71
2022/04/02 08:00:03;;;;;;;;;8.00;7.00;;;;;;;;5040603;28;45488;-71
2022/04/02 08:02:36;;;;;;;;;3.00;3.00;;;;;;;;5046597;28;46339;-71
2022/04/02 08:05:04;;;;;;;;;18.33;18.00;;;;;;;;5039047;28;45467;-71
2022/04/02 08:07:30;;;;;;;;;3.00;3.00;;;;;;;;5039756;28;45484;-72
2022/04/02 08:09:56;;;;;;;;;3.00;1.67;;;;;;;;5048639;28;45307;-72
2022/04/02 08:12:22;;;;;;;;;3.00;3.00;;;;;;;;5056257;28;45479;-73
2022/04/02 08:14:49;;;;;;;;;3.00;3.00;;;;;;;;5043365;28;45489;-72
2022/04/02 08:17:15;;;;;;;;;6.00;6.00;;;;;;;;5053395;28;45470;-72
2022/04/02 08:19:41;;;;;;;;;2.33;2.33;;;;;;;;5054411;28;45394;-71
2022/04/02 08:22:06;;;;;;;;;2.67;2.00;;;;;;;;5056895;28;46607;-72
2022/04/02 08:24:32;;;;;;;;;4.00;3.00;;;;;;;;5056469;28;45536;-71
2022/04/02 08:27:09;;;;;;;;;3.67;3.00;;;;;;;;5054787;28;45373;-72
2022/04/02 08:29:53;;;;;;;;;3.33;3.00;;;;;;;;5055753;28;45590;-71
2022/04/02 08:32:30;;;;;;;;;3.00;3.00;;;;;;;;5051920;28;46266;-70
2022/04/02 08:34:55;;;;;;;;;4.00;3.00;;;;;;;;5052316;28;45521;-71
2022/04/02 08:37:44;;;;;;;;;7.33;6.33;;;;;;;;5052994;28;45936;-71
2022/04/02 08:40:15;;;;;;;;;4.00;3.00;;;;;;;;5036786;28;45556;-72
2022/04/02 08:43:01;;;;;;;;;2.75;2.00;;;;;;;;5054620;28;45526;-69
2022/04/02 08:45:32;;;;;;;;;8.00;5.00;;;;;;;;5055540;28;45441;-70
2022/04/02 08:48:16;;;;;;;;;6.25;4.75;;;;;;;;5053908;28;45642;-70
2022/04/02 08:50:44;;;;;;;;;7.25;6.50;;;;;;;;5056491;28;45536;-69
2022/04/02 08:53:16;;;;;;;;;7.00;7.00;;;;;;;;5052779;28;47079;-73
2022/04/02 08:55:45;;;;;;;;;3.00;2.00;;;;;;;;5039192;28;45418;-70
2022/04/02 08:58:19;;;;;;;;;4.00;3.00;;;;;;;;5039590;28;45390;-70
2022/04/02 09:00:53;;;;;;;;;3.00;3.00;;;;;;;;5057960;28;45488;-71
2022/04/02 09:03:37;;;;;;;;;6.33;5.00;;;;;;;;5055068;28;45552;-71
2022/04/02 09:06:21;;;;;;;;;4.67;4.00;;;;;;;;5056277;28;45648;-71
2022/04/02 09:08:46;;;;;;;;;4.33;3.33;;;;;;;;5057886;28;45370;-71
2022/04/02 09:11:25;;;;;;;;;3.67;3.00;;;;;;;;5058427;28;45386;-71
2022/04/02 09:14:06;;;;;;;;;1.67;1.67;;;;;;;;5055524;28;45590;-70
2022/04/02 09:16:40;;;;;;;;;1.67;1.00;;;;;;;;5055680;28;45447;-71
2022/04/02 09:19:06;;;;;;;;;6.00;5.33;;;;;;;;5058063;28;45485;-71
2022/04/02 09:21:50;;;;;;;;;3.67;3.00;;;;;;;;5058470;28;45345;-71
2022/04/02 09:24:34;;;;;;;;;12.67;11.00;;;;;;;;5055285;28;45598;-69
2022/04/02 09:27:18;;;;;;;;;6.00;6.00;;;;;;;;5064699;28;45496;-69
2022/04/02 09:29:50;;;;;;;;;4.67;4.00;;;;;;;;5064468;28;46567;-69
2022/04/02 09:32:18;;;;;;;;;2.33;2.00;;;;;;;;5060879;28;45283;-70
2022/04/02 09:34:46;;;;;;;;;1.67;1.00;;;;;;;;5065569;27;46204;-69
2022/04/02 09:37:32;;;;;;;;;3.00;2.00;;;;;;;;5065214;28;45372;-69
2022/04/02 09:40:04;;;;;;;;;3.67;1.00;;;;;;;;5060157;28;45681;-72
2022/04/02 09:42:38;;;;;;;;;7.00;6.00;;;;;;;;5066078;28;45556;-72
2022/04/02 09:45:08;;;;;;;;;4.67;3.00;;;;;;;;5065264;27;48129;-72
2022/04/02 09:47:51;;;;;;;;;2.00;1.00;;;;;;;;5068070;28;45350;-72
2022/04/02 09:50:21;;;;;;;;;3.67;1.67;;;;;;;;5062424;28;45769;-71
2022/04/02 09:52:55;;;;;;;;;2.67;1.67;;;;;;;;5068463;28;45518;-71
2022/04/02 09:55:21;;;;;;;;;7.00;6.33;;;;;;;;5062499;28;45790;-71
2022/04/02 09:58:06;;;;;;;;;4.00;4.00;;;;;;;;5064918;28;45544;-72
2022/04/02 10:00:40;;;;;;;;;2.00;2.00;;;;;;;;5054678;27;45459;-74
2022/04/02 10:03:06;;;;;;;;;1.67;1.00;;;;;;;;5059905;28;45642;-74
2022/04/02 10:05:50;;;;;;;;;2.33;1.67;;;;;;;;5063769;28;45405;-72
2022/04/02 10:08:34;;;;;;;;;7.67;6.00;;;;;;;;5063237;28;45996;-75
2022/04/02 10:11:00;;;;;;;;;2.00;2.00;;;;;;;;5055315;28;45450;-71
2022/04/02 10:13:27;;;;;;;;;8.00;8.00;;;;;;;;5061110;28;45452;-72
2022/04/02 10:15:55;;;;;;;;;8.00;7.00;;;;;;;;5065546;27;46599;-71
2022/04/02 10:18:22;;;;;;;;;7.00;6.00;;;;;;;;5063143;28;45441;-71
2022/04/02 10:20:48;;;;;;;;;2.00;2.00;;;;;;;;5056605;28;45427;-71
2022/04/02 10:23:24;;;;;;;;;2.00;2.00;;;;;;;;5037275;28;45478;-71
2022/04/02 10:25:52;;;;;;;;;3.33;3.00;;;;;;;;5051821;28;46996;-71
2022/04/02 10:28:20;;;;;;;;;5.67;5.00;;;;;;;;5044415;28;45520;-70
2022/04/02 10:30:51;;;;;;;;;3.00;3.00;;;;;;;;5039660;28;45599;-71
2022/04/02 10:33:26;;;;;;;;;8.33;7.67;;;;;;;;5042310;28;45350;-72
2022/04/02 10:35:53;;;;;;;;;4.67;3.67;;;;;;;;5039703;28;46565;-71
2022/04/02 10:38:37;;;;;;;;;3.00;3.00;;;;;;;;5052010;28;45491;-70
2022/04/02 10:41:06;;;;;;;;;4.00;2.00;;;;;;;;5035137;28;45594;-71
2022/04/02 10:43:35;;;;;;;;;1.00;1.00;;;;;;;;5043148;28;45552;-71
2022/04/02 10:46:01;;;;;;;;;3.33;3.33;;;;;;;;5036319;28;46335;-71
2022/04/02 10:48:41;;;;;;;;;2.00;2.00;;;;;;;;5040549;28;45469;-75
2022/04/02 10:51:08;;;;;;;;;5.00;5.00;;;;;;;;5041634;28;45625;-73
2022/04/02 10:53:34;;;;;;;;;4.67;4.67;;;;;;;;5038572;28;45446;-73
2022/04/02 10:56:05;;;;;;;;;3.00;2.67;;;;;;;;5039148;28;45471;-71
2022/04/02 10:58:35;;;;;;;;;3.00;2.33;;;;;;;;5035787;28;45430;-76
2022/04/02 11:01:01;;;;;;;;;1.67;1.00;;;;;;;;5037987;28;45501;-71
2022/04/02 11:03:39;;;;;;;;;4.00;4.00;;;;;;;;5044213;28;45560;-72
2022/04/02 11:06:05;;;;;;;;;2.00;2.00;;;;;;;;5050953;28;45386;-71
2022/04/02 11:08:31;;;;;;;;;4.00;4.00;;;;;;;;5049868;28;45910;-71
2022/04/02 11:10:57;;;;;;;;;1.00;1.00;;;;;;;;5049441;28;45382;-71
2022/04/02 11:13:27;;;;;;;;;0.33;0.33;;;;;;;;5038805;28;45541;-71
2022/04/02 11:15:52;;;;;;;;;1.00;1.00;;;;;;;;5044444;28;45578;-71
2022/04/02 11:18:18;;;;;;;;;1.00;1.00;;;;;;;;5052444;28;45716;-70
2022/04/02 11:20:44;;;;;;;;;1.00;1.00;;;;;;;;5045644;28;45784;-70
2022/04/02 11:23:09;;;;;;;;;1.00;0.00;;;;;;;;5049817;28;45589;-71
2022/04/02 11:25:35;;;;;;;;;1.00;1.00;;;;;;;;5042897;28;45604;-71
2022/04/02 11:28:10;;;;;;;;;0.00;0.00;;;;;;;;5039907;28;45592;-71
2022/04/02 11:30:37;;;;;;;;;1.00;1.00;;;;;;;;5039614;28;45412;-71
2022/04/02 11:33:29;;;;;;;;;2.67;1.33;;;;;;;;5037655;28;45314;-71
2022/04/02 11:35:56;;;;;;;;;0.67;0.67;;;;;;;;5039475;28;46298;-71
2022/04/02 11:38:25;;;;;;;;;1.67;1.67;;;;;;;;5041817;28;45377;-71
2022/04/02 11:41:09;;;;;;;;;0.67;0.33;;;;;;;;5039324;28;45452;-71
2022/04/02 11:43:36;;;;;;;;;4.00;4.00;;;;;;;;5039258;28;45501;-71
2022/04/02 11:46:05;;;;;;;;;3.33;2.00;;;;;;;;5039735;28;45560;-71
2022/04/02 11:48:32;;;;;;;;;2.67;1.67;;;;;;;;5036427;28;45445;-71
2022/04/02 11:51:10;;;;;;;;;2.00;2.00;;;;;;;;5039253;28;45553;-71
2022/04/02 11:53:37;;;;;;;;;2.67;2.67;;;;;;;;5042259;28;45538;-71
2022/04/02 11:56:02;;;;;;;;;3.00;1.33;;;;;;;;5038340;28;45485;-71
2022/04/02 11:58:38;;;;;;;;;0.67;0.67;;;;;;;;5038631;28;45333;-71
2022/04/02 12:01:05;;;;;;;;;0.00;0.00;;;;;;;;5037121;28;45941;-70
2022/04/02 12:03:31;;;;;;;;;0.00;0.00;;;;;;;;5046371;28;45352;-70
2022/04/02 12:06:08;;;;;;;;;2.67;2.00;;;;;;;;5038451;28;45472;-71
2022/04/02 12:08:35;;;;;;;;;1.00;1.00;;;;;;;;5040797;28;45317;-71
2022/04/02 12:11:02;;;;;;;;;9.67;9.00;;;;;;;;5038882;28;45607;-70
2022/04/02 12:13:28;;;;;;;;;6.33;6.33;;;;;;;;5038537;28;45425;-71
2022/04/02 12:16:02;;;;;;;;;2.00;2.00;;;;;;;;5038660;28;45586;-71
2022/04/02 12:18:28;;;;;;;;;1.00;1.00;;;;;;;;5036136;28;45310;-70
2022/04/02 12:21:01;;;;;;;;;13.75;13.25;;;;;;;;5040436;28;45468;-70
2022/04/02 12:23:26;;;;;;;;;5.33;5.00;;;;;;;;5038676;28;45560;-71
2022/04/02 12:25:52;;;;;;;;;12.00;10.50;;;;;;;;5037852;28;45601;-70
2022/04/02 12:28:18;;;;;;;;;1.00;1.00;;;;;;;;5034594;28;45573;-70
2022/04/02 12:30:47;;;;;;;;;1.00;0.00;;;;;;;;5038125;28;45590;-70
2022/04/02 12:33:15;;;;;;;;;3.00;2.00;;;;;;;;5040150;28;45499;-70
2022/04/02 12:35:44;;;;;;;;;2.00;1.33;;;;;;;;5038061;28;45449;-71
2022/04/02 12:38:21;;;;;;;;;2.00;1.00;;;;;;;;5040772;28;45259;-71
2022/04/02 12:40:47;;;;;;;;;2.33;2.33;;;;;;;;5038539;28;45695;-71
2022/04/02 12:43:13;;;;;;;;;0.00;0.00;;;;;;;;5037784;28;45552;-70
2022/04/02 12:45:38;;;;;;;;;5.33;5.00;;;;;;;;5046457;28;46138;-71
2022/04/02 12:48:05;;;;;;;;;8.00;5.00;;;;;;;;5035979;28;45479;-71
2022/04/02 12:50:35;;;;;;;;;5.00;4.00;;;;;;;;5035592;28;45430;-71
2022/04/02 12:53:00;;;;;;;;;2.00;2.00;;;;;;;;5038491;28;45480;-71
2022/04/02 12:55:27;;;;;;;;;1.00;1.00;;;;;;;;5037968;28;46362;-71
2022/04/02 12:58:07;;;;;;;;;5.00;4.00;;;;;;;;5039504;28;45438;-72
2022/04/02 13:00:41;;;;;;;;;1.00;1.00;;;;;;;;5048572;28;45481;-71
2022/04/02 13:03:07;;;;;;;;;3.67;3.00;;;;;;;;5044589;28;45462;-70
2022/04/02 13:05:44;;;;;;;;;3.00;3.00;;;;;;;;5041009;28;46450;-70
2022/04/02 13:08:26;;;;;;;;;2.33;2.33;;;;;;;;5043843;28;45393;-70
2022/04/02 13:10:53;;;;;;;;;5.00;5.00;;;;;;;;5041079;28;45467;-71
2022/04/02 13:13:32;;;;;;;;;2.33;2.00;;;;;;;;5041516;28;45438;-72
2022/04/02 13:16:00;;;;;;;;;0.67;0.67;;;;;;;;5041078;28;46257;-70
2022/04/02 13:21:13;;;;;;;;;1.33;1.00;;;;;;;;5035266;28;45465;-70
2022/04/02 13:23:56;;;;;;;;;1.67;1.67;;;;;;;;5043691;28;45419;-70
2022/04/02 13:26:31;;;;;;;;;3.33;3.00;;;;;;;;5041480;28;45833;-70
2022/04/02 13:29:02;;;;;;;;;1.67;1.67;;;;;;;;5039500;28;45658;-70
2022/04/02 13:31:29;;;;;;;;;3.00;2.00;;;;;;;;5039570;28;45424;-70
2022/04/02 13:34:13;;;;;;;;;0.00;0.00;;;;;;;;5043061;28;45512;-70
2022/04/02 13:36:57;;;;;;;;;3.00;2.00;;;;;;;;5038708;28;46204;-70
2022/04/02 13:39:26;;;;;;;;;0.00;0.00;;;;;;;;5047030;28;45368;-70
2022/04/02 13:41:52;;;;;;;;;0.00;0.00;;;;;;;;5043404;28;45402;-70
2022/04/02 13:44:23;;;;;;;;;1.33;1.33;;;;;;;;5038250;28;45476;-70
2022/04/02 13:46:53;;;;;;;;;2.33;2.00;;;;;;;;5038750;28;46815;-70
2022/04/02 13:49:39;;;;;;;;;2.25;2.25;;;;;;;;5040572;28;45526;-70
2022/04/02 13:52:07;;;;;;;;;1.00;0.67;;;;;;;;5040151;28;45505;-70
2022/04/02 13:55:02;;;;;;;;;0.67;0.33;;;;;;;;5043285;28;45449;-70
2022/04/02 13:57:32;;;;;;;;;2.67;1.00;;;;;;;;5035677;28;45533;-70
2022/04/02 13:59:57;;;;;;;;;1.00;0.00;;;;;;;;5043480;28;45326;-71
2022/04/02 14:02:24;;;;;;;;;2.00;2.00;;;;;;;;5040574;28;45378;-70
2022/04/02 14:04:57;;;;;;;;;1.00;1.00;;;;;;;;5040401;28;45524;-71
2022/04/02 14:07:26;;;;;;;;;0.33;0.33;;;;;;;;5036488;28;45649;-71
2022/04/02 14:09:56;;;;;;;;;1.00;0.00;;;;;;;;5041765;28;45503;-70
2022/04/02 14:12:30;;;;;;;;;3.50;3.25;;;;;;;;5040115;28;45472;-70
2022/04/02 14:15:06;;;;;;;;;0.67;0.67;;;;;;;;5043711;28;45435;-70
2022/04/02 14:17:31;;;;;;;;;1.00;1.00;;;;;;;;5038865;28;46570;-70
2022/04/02 14:20:05;;;;;;;;;0.33;0.00;;;;;;;;5038443;28;45465;-70
2022/04/02 14:22:34;;;;;;;;;1.00;1.00;;;;;;;;5039928;28;45470;-70
2022/04/02 14:25:14;;;;;;;;;1.33;1.00;;;;;;;;5042393;28;45554;-70
2022/04/02 14:27:58;;;;;;;;;1.00;1.00;;;;;;;;5037824;28;45517;-70
2022/04/02 14:30:31;;;;;;;;;5.25;4.25;;;;;;;;5039648;28;45558;-70
2022/04/02 14:33:17;;;;;;;;;1.67;1.00;;;;;;;;5040194;28;45466;-70
2022/04/02 14:35:55;;;;;;;;;1.00;1.00;;;;;;;;5041837;28;45476;-70
2022/04/02 14:38:31;;;;;;;;;1.00;1.00;;;;;;;;5045851;28;46437;-70
2022/04/02 14:41:05;;;;;;;;;2.25;1.00;;;;;;;;5045139;28;45514;-71
2022/04/02 14:43:31;;;;;;;;;0.00;0.00;;;;;;;;5038131;28;45585;-70
2022/04/02 14:45:59;;;;;;;;;1.00;1.00;;;;;;;;5040355;28;45446;-70
2022/04/02 14:48:39;;;;;;;;;1.00;0.75;;;;;;;;5037992;28;46213;-70
2022/04/02 14:51:20;;;;;;;;;1.00;1.00;;;;;;;;5039603;28;45542;-70